createdAt,value
2018-05-14T00:02:03.226Z,81.50
2018-05-14T00:04:30.809Z,82.30
2018-05-14T00:06:58.272Z,82.87
2018-05-14T00:09:26.529Z,83.20
2018-05-14T00:11:54.096Z,82.60
2018-05-14T00:14:22.268Z,82.00
2018-05-14T00:16:49.733Z,86.30
2018-05-14T00:19:18.017Z,81.73
2018-05-14T00:21:46.261Z,77.60
2018-05-14T00:24:13.729Z,78.57
2018-05-14T00:26:41.326Z,84.33
2018-05-14T00:29:08.790Z,85.40
2018-05-14T00:31:36.286Z,81.20
2018-05-14T00:34:03.757Z,77.27
2018-05-14T00:36:31.229Z,78.10
2018-05-14T00:38:58.721Z,79.87
2018-05-14T00:41:26.188Z,81.20
2018-05-14T00:43:53.856Z,82.07
2018-05-14T00:46:21.352Z,78.77
2018-05-14T00:48:50.011Z,80.37
2018-05-14T00:51:17.534Z,80.13
2018-05-14T00:53:45.004Z,75.27
2018-05-14T00:56:12.473Z,78.80
2018-05-14T00:58:39.966Z,77.67
2018-05-14T01:01:07.439Z,78.80
2018-05-14T01:03:35.676Z,77.40
2018-05-14T01:06:03.166Z,76.13
2018-05-14T01:08:31.401Z,78.53
2018-05-14T01:10:58.891Z,79.10
2018-05-14T01:13:26.433Z,72.73
2018-05-14T01:15:53.913Z,78.03
2018-05-14T01:18:22.186Z,77.77
2018-05-14T01:20:50.410Z,82.03
2018-05-14T01:23:17.954Z,79.07
2018-05-14T01:25:45.432Z,75.60
2018-05-14T01:28:12.975Z,73.73
2018-05-14T01:30:40.396Z,77.33
2018-05-14T01:33:08.645Z,77.80
2018-05-14T01:35:36.119Z,81.23
2018-05-14T01:38:04.376Z,77.27
2018-05-14T01:40:31.854Z,77.83
2018-05-14T01:42:59.318Z,81.57
2018-05-14T01:45:27.574Z,78.93
2018-05-14T01:47:55.129Z,78.10
2018-05-14T01:50:22.605Z,80.20
2018-05-14T01:52:50.861Z,78.30
2018-05-14T01:55:18.336Z,77.67
2018-05-14T01:57:46.573Z,81.57
2018-05-14T02:00:14.062Z,78.57
2018-05-14T02:02:42.306Z,77.50
2018-05-14T02:05:09.761Z,78.40
2018-05-14T02:07:37.249Z,76.97
2018-05-14T02:10:05.489Z,76.93
2018-05-14T02:12:32.956Z,80.00
2018-05-14T02:15:00.442Z,77.80
2018-05-14T02:17:28.685Z,77.77
2018-05-14T02:19:56.157Z,77.97
2018-05-14T02:22:23.638Z,78.13
2018-05-14T02:24:51.872Z,73.77
2018-05-14T02:27:19.345Z,75.90
2018-05-14T02:29:46.827Z,76.37
2018-05-14T02:32:15.126Z,78.40
2018-05-14T02:34:42.592Z,84.43
2018-05-14T02:37:10.096Z,75.97
2018-05-14T02:39:38.329Z,79.10
2018-05-14T02:42:05.800Z,78.07
2018-05-14T02:44:33.281Z,76.77
2018-05-14T02:47:00.752Z,81.60
2018-05-14T02:49:29.023Z,80.03
2018-05-14T02:51:57.274Z,75.30
2018-05-14T02:54:24.746Z,75.40
2018-05-14T02:56:52.212Z,81.17
2018-05-14T02:59:20.473Z,78.73
2018-05-14T03:01:48.025Z,80.90
2018-05-14T03:04:15.436Z,80.20
2018-05-14T03:06:42.913Z,79.20
2018-05-14T03:09:10.377Z,77.57
2018-05-14T03:11:37.848Z,83.50
2018-05-14T03:14:05.329Z,81.50
2018-05-14T03:16:33.564Z,81.40
2018-05-14T03:19:01.024Z,85.80
2018-05-14T03:21:28.508Z,87.47
2018-05-14T03:23:56.744Z,87.07
2018-05-14T03:26:24.215Z,82.07
2018-05-14T03:28:51.696Z,81.43
2018-05-14T03:31:19.944Z,81.13
2018-05-14T03:33:47.408Z,83.37
2018-05-14T03:36:14.906Z,78.17
2018-05-14T03:38:42.428Z,82.17
2018-05-14T03:41:09.901Z,81.27
2018-05-14T03:43:38.155Z,85.87
2018-05-14T03:46:06.393Z,85.00
2018-05-14T03:48:33.865Z,84.00
2018-05-14T03:51:01.918Z,84.13
2018-05-14T03:53:29.434Z,84.23
2018-05-14T03:55:56.898Z,83.60
2018-05-14T03:58:37.207Z,86.90
2018-05-14T04:01:16.673Z,85.07
2018-05-14T04:03:56.013Z,84.87
2018-05-14T04:06:34.224Z,85.43
2018-05-14T04:09:01.715Z,84.37
2018-05-14T04:11:29.176Z,83.90
2018-05-14T04:13:58.293Z,84.77
2018-05-14T04:16:25.855Z,89.47
2018-05-14T04:18:54.217Z,84.07
2018-05-14T04:21:21.677Z,87.70
2018-05-14T04:23:49.161Z,89.50
2018-05-14T04:26:16.648Z,87.37
2018-05-14T04:28:44.882Z,86.97
2018-05-14T04:31:12.377Z,88.70
2018-05-14T04:33:40.603Z,85.43
2018-05-14T04:36:08.077Z,85.67
2018-05-14T04:38:35.572Z,82.10
2018-05-14T04:41:03.822Z,84.10
2018-05-14T04:43:31.289Z,85.77
2018-05-14T04:45:58.795Z,83.13
2018-05-14T04:48:26.245Z,79.60
2018-05-14T04:50:53.710Z,82.07
2018-05-14T04:53:21.189Z,79.63
2018-05-14T04:55:48.674Z,81.07
2018-05-14T04:58:16.141Z,81.00
2018-05-14T05:00:44.405Z,78.30
2018-05-14T05:03:11.908Z,72.87
2018-05-14T05:05:39.376Z,78.07
2018-05-14T05:08:06.858Z,76.13
2018-05-14T05:10:34.326Z,75.80
2018-05-14T05:13:02.590Z,78.37
2018-05-14T05:15:30.416Z,77.97
2018-05-14T05:17:57.891Z,78.30
2018-05-14T05:20:25.372Z,74.03
2018-05-14T05:22:52.886Z,75.60
2018-05-14T05:25:20.312Z,70.50
2018-05-14T05:27:48.548Z,70.80
2018-05-14T05:30:16.044Z,67.47
2018-05-14T05:32:44.280Z,68.70
2018-05-14T05:35:11.763Z,66.70
2018-05-14T05:37:39.349Z,62.23
2018-05-14T05:40:06.731Z,61.60
2018-05-14T05:42:34.269Z,61.27
2018-05-14T05:45:01.753Z,58.40
2018-05-14T05:47:29.223Z,59.77
2018-05-14T05:49:56.694Z,59.20
2018-05-14T05:52:24.200Z,61.83
2018-05-14T05:54:52.413Z,60.40
2018-05-14T05:57:19.885Z,58.60
2018-05-14T05:59:47.369Z,61.17
2018-05-14T06:02:15.675Z,59.00
2018-05-14T06:04:43.232Z,56.67
2018-05-14T06:07:10.701Z,59.70
2018-05-14T06:09:38.161Z,54.80
2018-05-14T06:12:05.624Z,55.90
2018-05-14T06:14:33.123Z,55.30
2018-05-14T06:17:01.353Z,56.07
2018-05-14T06:19:28.812Z,56.47
2018-05-14T06:21:56.301Z,52.50
2018-05-14T06:24:24.546Z,52.97
2018-05-14T06:26:52.031Z,51.97
2018-05-14T06:29:19.506Z,52.87
2018-05-14T06:31:47.736Z,52.30
2018-05-14T06:34:15.222Z,51.27
2018-05-14T06:36:42.770Z,54.03
2018-05-14T06:39:10.248Z,53.27
2018-05-14T06:41:38.505Z,52.70
2018-05-14T06:44:05.965Z,52.07
2018-05-14T06:46:33.445Z,51.70
2018-05-14T06:49:01.687Z,52.87
2018-05-14T06:51:29.184Z,52.10
2018-05-14T06:53:56.645Z,56.93
2018-05-14T06:56:24.139Z,51.80
2018-05-14T06:58:51.593Z,51.87
2018-05-14T07:01:19.097Z,51.10
2018-05-14T07:03:47.341Z,52.47
2018-05-14T07:06:14.856Z,51.30
2018-05-14T07:08:42.360Z,49.70
2018-05-14T07:11:09.821Z,48.30
2018-05-14T07:13:38.184Z,51.03
2018-05-14T07:16:05.664Z,49.57
2018-05-14T07:18:33.897Z,50.33
2018-05-14T07:21:01.369Z,49.73
2018-05-14T07:23:28.845Z,49.40
2018-05-14T07:25:56.309Z,52.57
2018-05-14T07:28:24.538Z,50.03
2018-05-14T07:30:52.017Z,51.60
2018-05-14T07:33:19.473Z,49.83
2018-05-14T07:35:47.049Z,49.23
2018-05-14T07:38:14.532Z,51.40
2018-05-14T07:40:42.001Z,48.77
2018-05-14T07:43:09.544Z,52.10
2018-05-14T07:45:37.777Z,49.90
2018-05-14T07:48:05.253Z,51.57
2018-05-14T07:50:32.733Z,51.83
2018-05-14T07:53:00.965Z,51.97
2018-05-14T07:55:28.434Z,50.77
2018-05-14T07:57:55.917Z,51.10
2018-05-14T08:00:24.244Z,49.27
2018-05-14T08:02:51.724Z,47.10
2018-05-14T08:05:19.280Z,51.20
2018-05-14T08:07:46.757Z,49.57
2018-05-14T08:10:15.029Z,47.83
2018-05-14T08:12:43.269Z,49.37
2018-05-14T08:15:10.742Z,47.57
2018-05-14T08:17:38.204Z,51.67
2018-05-14T08:20:05.712Z,48.60
2018-05-14T08:22:33.197Z,50.33
2018-05-14T08:25:00.666Z,48.17
2018-05-14T08:27:28.140Z,50.30
2018-05-14T08:29:55.640Z,51.10
2018-05-14T08:32:23.121Z,49.97
2018-05-14T08:34:50.572Z,49.03
2018-05-14T08:37:18.056Z,49.63
2018-05-14T08:39:46.296Z,54.83
2018-05-14T08:42:13.767Z,57.13
2018-05-14T08:44:41.253Z,57.20
2018-05-14T08:47:08.724Z,54.70
2018-05-14T08:49:36.955Z,54.23
2018-05-14T08:52:04.453Z,54.20
2018-05-14T08:54:32.700Z,52.83
2018-05-14T08:57:00.180Z,52.70
2018-05-14T08:59:28.433Z,53.80
2018-05-14T09:01:55.893Z,50.43
2018-05-14T09:04:23.375Z,49.30
2018-05-14T09:06:51.620Z,50.43
2018-05-14T09:09:19.197Z,49.90
2018-05-14T09:11:46.663Z,50.27
2018-05-14T09:14:14.903Z,50.53
2018-05-14T09:16:42.380Z,52.43
2018-05-14T09:19:10.460Z,50.10
2018-05-14T09:21:38.737Z,50.77
2018-05-14T09:24:06.972Z,50.90
2018-05-14T09:26:34.510Z,50.57
2018-05-14T09:29:01.924Z,52.07
2018-05-14T09:31:30.157Z,55.67
2018-05-14T09:33:57.622Z,55.27
2018-05-14T09:36:25.107Z,55.73
2018-05-14T09:38:52.584Z,54.60
2018-05-14T09:41:20.812Z,49.73
2018-05-14T09:43:48.337Z,54.93
2018-05-14T09:46:15.800Z,51.43
2018-05-14T09:48:43.289Z,49.40
2018-05-14T09:51:10.773Z,51.50
2018-05-14T09:53:39.037Z,51.77
2018-05-14T09:56:06.505Z,51.40
2018-05-14T09:58:34.744Z,49.97
2018-05-14T10:01:02.214Z,50.10
2018-05-14T10:03:29.808Z,55.87
2018-05-14T10:05:58.049Z,56.43
2018-05-14T10:08:25.514Z,52.13
2018-05-14T10:10:52.994Z,55.80
2018-05-14T10:13:21.272Z,53.40
2018-05-14T10:15:48.742Z,48.83
2018-05-14T10:18:16.218Z,54.23
2018-05-14T10:20:43.697Z,54.90
2018-05-14T10:23:11.157Z,55.13
2018-05-14T10:25:38.622Z,51.00
2018-05-14T10:28:06.129Z,51.30
2018-05-14T10:30:33.593Z,44.60
2018-05-14T10:33:01.052Z,48.07
2018-05-14T10:35:28.530Z,46.97
2018-05-14T10:37:55.998Z,46.10
2018-05-14T10:40:23.519Z,48.53
2018-05-14T10:42:51.006Z,45.03
2018-05-14T10:45:18.545Z,45.03
2018-05-14T10:47:46.026Z,41.80
2018-05-14T10:50:13.485Z,42.40
2018-05-14T10:52:40.953Z,41.70
2018-05-14T10:55:08.459Z,44.33
2018-05-14T10:57:36.018Z,42.97
2018-05-14T11:00:04.249Z,41.17
2018-05-14T11:02:31.729Z,40.13
2018-05-14T11:04:59.208Z,40.17
2018-05-14T11:07:26.664Z,40.50
2018-05-14T11:09:54.166Z,41.07
2018-05-14T11:12:21.628Z,40.83
2018-05-14T11:14:49.096Z,40.10
2018-05-14T11:17:17.358Z,38.67
2018-05-14T11:19:44.812Z,38.50
2018-05-14T11:22:12.278Z,39.70
2018-05-14T11:24:39.776Z,37.23
2018-05-14T11:27:07.229Z,39.10
2018-05-14T11:29:34.701Z,37.10
2018-05-14T11:32:02.190Z,37.13
2018-05-14T11:34:30.432Z,36.63
2018-05-14T11:36:57.889Z,40.00
2018-05-14T11:39:25.397Z,38.00
2018-05-14T11:41:53.643Z,37.97
2018-05-14T11:44:21.103Z,35.83
2018-05-14T11:46:48.577Z,36.90
2018-05-14T11:49:16.081Z,35.73
2018-05-14T11:51:43.641Z,36.80
2018-05-14T11:54:11.202Z,38.37
2018-05-14T11:56:38.701Z,36.47
2018-05-14T11:59:06.165Z,35.70
2018-05-14T12:01:33.715Z,35.87
2018-05-14T12:04:02.100Z,35.13
2018-05-14T12:06:29.580Z,34.57
2018-05-14T12:08:57.805Z,35.03
2018-05-14T12:11:25.281Z,32.33
2018-05-14T12:13:52.769Z,35.60
2018-05-14T12:16:20.318Z,33.20
2018-05-14T12:18:47.706Z,32.47
2018-05-14T12:21:15.195Z,34.50
2018-05-14T12:23:42.661Z,30.77
2018-05-14T12:26:10.124Z,31.57
2018-05-14T12:28:37.609Z,33.20
2018-05-14T12:31:05.832Z,30.83
2018-05-14T12:33:33.317Z,23.67
2018-05-14T12:36:00.823Z,24.53
2018-05-14T12:38:28.289Z,26.23
2018-05-14T12:40:55.756Z,21.07
2018-05-14T12:43:23.243Z,21.67
2018-05-14T12:45:50.710Z,22.83
2018-05-14T12:48:18.958Z,20.93
2018-05-14T12:50:46.426Z,21.47
2018-05-14T12:53:13.884Z,18.20
2018-05-14T12:55:41.496Z,18.20
2018-05-14T12:58:08.952Z,20.67
2018-05-14T13:00:36.425Z,17.20
2018-05-14T13:03:03.901Z,17.27
2018-05-14T13:05:31.369Z,17.40
2018-05-14T13:07:58.856Z,15.90
2018-05-14T13:10:27.098Z,16.97
2018-05-14T13:12:54.917Z,15.07
2018-05-14T13:15:22.378Z,16.37
2018-05-14T13:17:49.858Z,14.87
2018-05-14T13:20:17.322Z,14.67
2018-05-14T13:22:44.813Z,14.47
2018-05-14T13:25:13.057Z,13.37
2018-05-14T13:27:41.400Z,15.13
2018-05-14T13:30:08.885Z,15.40
2018-05-14T13:32:36.381Z,11.93
2018-05-14T13:35:04.686Z,10.97
2018-05-14T13:37:32.249Z,10.50
2018-05-14T13:39:59.717Z,10.47
2018-05-14T13:42:27.181Z,10.57
2018-05-14T13:44:54.653Z,11.10
2018-05-14T13:47:22.126Z,9.87
2018-05-14T13:49:49.630Z,10.00
2018-05-14T13:52:17.100Z,9.60
2018-05-14T13:54:44.643Z,9.13
2018-05-14T13:57:12.178Z,9.13
2018-05-14T13:59:39.613Z,9.23
2018-05-14T14:02:07.874Z,10.00
2018-05-14T14:04:35.346Z,9.00
2018-05-14T14:07:03.585Z,9.00
2018-05-14T14:09:31.122Z,7.70
2018-05-14T14:11:58.632Z,7.33
2018-05-14T14:14:26.106Z,7.93
2018-05-14T14:16:54.386Z,7.43
2018-05-14T14:19:21.826Z,8.20
2018-05-14T14:21:49.289Z,6.93
2018-05-14T14:24:17.617Z,6.57
2018-05-14T14:26:45.080Z,6.67
2018-05-14T14:29:12.557Z,5.97
2018-05-14T14:31:40.041Z,5.93
2018-05-14T14:34:08.271Z,6.33
2018-05-14T14:36:35.740Z,5.87
2018-05-14T14:39:03.205Z,6.03
2018-05-14T14:41:30.690Z,6.00
2018-05-14T14:43:58.929Z,6.40
2018-05-14T14:46:26.415Z,6.97
2018-05-14T14:48:53.881Z,5.43
2018-05-14T14:51:22.148Z,6.23
2018-05-14T14:53:50.384Z,5.97
2018-05-14T14:56:17.843Z,5.03
2018-05-14T14:58:45.332Z,5.83
2018-05-14T15:01:13.556Z,5.60
2018-05-14T15:03:41.024Z,5.33
2018-05-14T15:06:08.509Z,5.50
2018-05-14T15:08:35.967Z,5.97
2018-05-14T15:11:04.236Z,5.97
2018-05-14T15:13:31.844Z,5.70
2018-05-14T15:15:59.303Z,5.80
2018-05-14T15:18:26.785Z,6.10
2018-05-14T15:20:54.253Z,5.63
2018-05-14T15:23:21.706Z,5.27
2018-05-14T15:25:49.182Z,5.70
2018-05-14T15:28:16.646Z,4.70
2018-05-14T15:30:44.893Z,5.83
2018-05-14T15:33:12.364Z,5.83
2018-05-14T15:35:39.850Z,5.53
2018-05-14T15:38:08.146Z,5.00
2018-05-14T15:40:35.706Z,5.70
2018-05-14T15:43:03.265Z,5.03
2018-05-14T15:45:30.719Z,5.20
2018-05-14T15:47:58.215Z,5.40
2018-05-14T15:50:25.672Z,4.90
2018-05-14T15:52:53.136Z,4.60
2018-05-14T15:55:20.646Z,4.93
2018-05-14T15:57:48.213Z,4.37
2018-05-14T16:00:15.680Z,4.23
2018-05-14T16:02:43.151Z,4.63
2018-05-14T16:05:10.637Z,4.90
2018-05-14T16:07:38.093Z,5.00
2018-05-14T16:10:06.345Z,4.57
2018-05-14T16:12:33.808Z,4.83
2018-05-14T16:15:01.276Z,4.50
2018-05-14T16:17:29.541Z,4.50
2018-05-14T16:19:57.023Z,5.20
2018-05-14T16:22:25.244Z,4.47
2018-05-14T16:24:52.728Z,4.67
2018-05-14T16:27:20.194Z,4.40
2018-05-14T16:29:47.664Z,4.40
2018-05-14T16:32:15.913Z,4.83
2018-05-14T16:34:43.485Z,3.83
2018-05-14T16:37:11.052Z,4.37
2018-05-14T16:39:39.301Z,5.00
2018-05-14T16:42:06.770Z,3.70
2018-05-14T16:44:34.981Z,4.07
2018-05-14T16:47:02.554Z,3.60
2018-05-14T16:49:30.061Z,4.50
2018-05-14T16:51:57.549Z,4.10
2018-05-14T16:54:25.064Z,3.90
2018-05-14T16:56:53.330Z,4.57
2018-05-14T16:59:21.808Z,4.20
2018-05-14T17:01:49.301Z,4.43
2018-05-14T17:04:16.803Z,3.90
2018-05-14T17:06:45.095Z,4.73
2018-05-14T17:09:12.560Z,4.57
2018-05-14T17:11:40.047Z,4.40
2018-05-14T17:14:08.903Z,3.97
2018-05-14T17:16:37.173Z,4.20
2018-05-14T17:19:05.471Z,3.70
2018-05-14T17:21:34.445Z,4.23
2018-05-14T17:24:01.902Z,4.70
2018-05-14T17:26:29.451Z,4.03
2018-05-14T17:28:57.637Z,3.83
2018-05-14T17:31:25.090Z,3.77
2018-05-14T17:33:52.578Z,4.60
2018-05-14T17:36:20.881Z,4.03
2018-05-14T17:38:48.305Z,4.53
2018-05-14T17:41:15.828Z,4.33
2018-05-14T17:43:43.306Z,4.20
2018-05-14T17:46:10.785Z,4.47
2018-05-14T17:48:39.035Z,4.30
2018-05-14T17:51:06.522Z,4.27
2018-05-14T17:53:34.790Z,4.17
2018-05-14T17:56:02.272Z,4.53
2018-05-14T17:58:29.746Z,4.37
2018-05-14T18:00:57.241Z,4.00
2018-05-14T18:03:24.737Z,4.63
2018-05-14T18:05:52.992Z,5.07
2018-05-14T18:08:20.486Z,4.43
2018-05-14T18:10:48.673Z,4.87
2018-05-14T18:13:16.726Z,4.50
2018-05-14T18:15:45.045Z,4.33
2018-05-14T18:18:13.385Z,4.37
2018-05-14T18:20:44.593Z,4.23
2018-05-14T18:23:20.036Z,4.60
2018-05-14T18:25:53.895Z,4.27
2018-05-14T18:28:21.350Z,4.47
2018-05-14T18:30:48.821Z,4.83
2018-05-14T18:33:23.812Z,4.53
2018-05-14T18:35:51.288Z,4.30
2018-05-14T18:38:18.769Z,4.77
2018-05-14T18:40:47.246Z,4.33
2018-05-14T18:43:14.750Z,4.70
2018-05-14T18:45:43.975Z,4.60
2018-05-14T18:48:12.048Z,4.67
2018-05-14T18:50:41.408Z,5.00
2018-05-14T18:53:08.902Z,5.30
2018-05-14T18:55:36.370Z,5.20
2018-05-14T18:58:03.919Z,4.70
2018-05-14T19:00:31.406Z,4.57
2018-05-14T19:03:00.053Z,4.67
2018-05-14T19:05:29.010Z,4.67
2018-05-14T19:07:59.490Z,4.83
2018-05-14T19:10:33.349Z,4.47
2018-05-14T19:13:01.609Z,4.33
2018-05-14T19:15:35.489Z,4.77
2018-05-14T19:18:02.972Z,5.43
2018-05-14T19:20:31.538Z,4.90
2018-05-14T19:23:04.638Z,4.30
2018-05-14T19:25:32.967Z,5.23
2018-05-14T19:28:06.678Z,4.57
2018-05-14T19:30:35.024Z,4.83
2018-05-14T19:33:04.038Z,5.07
2018-05-14T19:35:38.658Z,5.30
2018-05-14T19:38:06.737Z,5.27
2018-05-14T19:40:51.089Z,5.20
2018-05-14T19:43:18.555Z,4.63
2018-05-14T19:45:48.878Z,4.97
2018-05-14T19:48:16.369Z,4.67
2018-05-14T19:50:44.701Z,4.40
2018-05-14T19:53:12.955Z,4.53
2018-05-14T19:55:42.231Z,4.50
2018-05-14T19:58:09.697Z,4.40
2018-05-14T20:00:37.981Z,4.90
2018-05-14T20:03:06.221Z,4.60
2018-05-14T20:05:34.677Z,5.17
2018-05-14T20:08:04.362Z,5.10
2018-05-14T20:10:31.845Z,5.60
2018-05-14T20:13:02.098Z,4.93
2018-05-14T20:15:30.940Z,4.83
2018-05-14T20:17:59.143Z,5.00
2018-05-14T20:20:26.622Z,5.00
2018-05-14T20:22:54.638Z,4.73
2018-05-14T20:25:22.645Z,5.03
2018-05-14T20:27:53.853Z,4.90
2018-05-14T20:30:21.416Z,5.73
2018-05-14T20:32:50.229Z,4.87
2018-05-14T20:35:17.714Z,5.67
2018-05-14T20:37:46.427Z,5.17
2018-05-14T20:40:13.937Z,5.17
2018-05-14T20:42:41.473Z,5.23
2018-05-14T20:45:09.798Z,5.10
2018-05-14T20:47:39.029Z,5.27
2018-05-14T20:50:07.089Z,4.73
2018-05-14T20:52:34.658Z,5.83
2018-05-14T20:55:02.131Z,5.80
2018-05-14T20:57:29.599Z,5.50
2018-05-14T20:59:57.052Z,6.40
2018-05-14T21:02:24.539Z,5.90
2018-05-14T21:04:52.036Z,5.90
2018-05-14T21:07:19.501Z,5.93
2018-05-14T21:09:47.017Z,6.33
2018-05-14T21:12:15.244Z,5.90
2018-05-14T21:14:42.746Z,5.47
2018-05-14T21:17:10.196Z,6.23
2018-05-14T21:19:37.676Z,6.43
2018-05-14T21:22:05.898Z,5.90
2018-05-14T21:24:33.385Z,6.10
2018-05-14T21:27:00.837Z,6.03
2018-05-14T21:29:28.302Z,6.27
2018-05-14T21:31:55.799Z,6.10
2018-05-14T21:34:23.272Z,5.67
2018-05-14T21:36:50.761Z,6.20
2018-05-14T21:39:18.221Z,6.03
2018-05-14T21:41:45.698Z,5.83
2018-05-14T21:44:13.945Z,6.00
2018-05-14T21:46:41.437Z,6.33
2018-05-14T21:49:08.908Z,5.83
2018-05-14T21:51:36.377Z,5.63
2018-05-14T21:54:03.838Z,6.90
2018-05-14T21:56:31.753Z,6.40
2018-05-14T21:58:59.238Z,6.60
2018-05-14T22:01:26.712Z,6.27
2018-05-14T22:03:54.170Z,6.13
2018-05-14T22:06:21.637Z,6.83
2018-05-14T22:08:49.092Z,6.70
2018-05-14T22:11:16.561Z,7.70
2018-05-14T22:13:44.053Z,7.23
2018-05-14T22:16:12.276Z,6.80
2018-05-14T22:18:39.745Z,7.20
2018-05-14T22:21:07.228Z,6.80
2018-05-14T22:23:34.696Z,6.93
2018-05-14T22:26:03.014Z,7.20
2018-05-14T22:28:30.574Z,6.97
2018-05-14T22:30:58.025Z,6.73
2018-05-14T22:33:25.593Z,7.17
2018-05-14T22:35:53.097Z,7.83
2018-05-14T22:38:20.553Z,7.00
2018-05-14T22:40:48.029Z,6.83
2018-05-14T22:43:16.273Z,6.70
2018-05-14T22:45:43.738Z,7.17
2018-05-14T22:48:11.240Z,6.37
2018-05-14T22:50:38.805Z,6.90
2018-05-14T22:53:06.266Z,7.30
2018-05-14T22:55:33.758Z,7.60
2018-05-14T22:58:01.225Z,7.40
2018-05-14T23:00:28.785Z,8.10
2018-05-14T23:02:56.290Z,7.30
2018-05-14T23:05:23.756Z,8.30
2018-05-14T23:07:51.222Z,7.10
2018-05-14T23:10:18.865Z,7.60
2018-05-14T23:12:46.350Z,7.63
2018-05-14T23:15:13.816Z,7.70
2018-05-14T23:17:41.288Z,7.47
2018-05-14T23:20:08.761Z,8.20
2018-05-14T23:22:42.702Z,6.73
2018-05-14T23:25:10.164Z,8.43
2018-05-14T23:27:37.616Z,7.20
2018-05-14T23:30:05.092Z,8.53
2018-05-14T23:32:32.557Z,7.87
2018-05-14T23:35:00.063Z,7.73
2018-05-14T23:37:27.536Z,7.70
2018-05-14T23:39:55.096Z,7.50
2018-05-14T23:42:22.608Z,8.57
2018-05-14T23:44:50.848Z,9.23
2018-05-14T23:47:18.308Z,7.70
2018-05-14T23:49:45.815Z,8.17
2018-05-14T23:52:14.033Z,7.97
2018-05-14T23:54:41.506Z,7.63
2018-05-14T23:57:08.990Z,8.80
2018-05-14T23:59:36.458Z,8.30
